Time;durP1;ratioP1;P1;durP2;ratioP2;P2;SDS_P1;SDS_P2;PMS_P1;PMS_P2;Temp;Humidity;BMP_temperature;BMP_pressure;BME280_temperature;BME280_humidity;BME280_pressure;Samples;Min_cycle;Max_cycle;Signal;HPM_P1;HPM_P2
2020/12/03 00:01:53;;;;;;;4.13;2.58;;;;;;;;;;4993979;28;20196;-65
2020/12/03 00:04:20;;;;;;;2.28;2.17;;;;;;;;;;4994021;28;20198;-65
2020/12/03 00:06:49;;;;;;;2.80;2.60;;;;;;;;;;4994007;28;20217;-65
2020/12/03 00:09:17;;;;;;;2.75;2.50;;;;;;;;;;4993823;28;20174;-66
2020/12/03 00:11:45;;;;;;;4.55;4.10;;;;;;;;;;4992528;28;20233;-66
2020/12/03 00:14:12;;;;;;;3.58;3.45;;;;;;;;;;4992657;28;20232;-64
2020/12/03 00:16:38;;;;;;;3.08;2.78;;;;;;;;;;4994198;28;20259;-65
2020/12/03 00:19:05;;;;;;;2.05;1.98;;;;;;;;;;4993665;28;20189;-65
2020/12/03 00:21:42;;;;;;;4.00;3.08;;;;;;;;;;4993671;28;20285;-63
2020/12/03 00:24:10;;;;;;;2.78;2.58;;;;;;;;;;4993704;28;20221;-65
2020/12/03 00:26:36;;;;;;;5.28;1.95;;;;;;;;;;4993686;28;20902;-64
2020/12/03 00:29:02;;;;;;;2.78;2.67;;;;;;;;;;4993668;28;20174;-64
2020/12/03 00:31:28;;;;;;;4.05;3.10;;;;;;;;;;4992452;28;20293;-64
2020/12/03 00:33:54;;;;;;;8.13;2.45;;;;;;;;;;4993655;28;20782;-65
2020/12/03 00:36:20;;;;;;;4.22;3.38;;;;;;;;;;4993453;28;20237;-65
2020/12/03 00:38:47;;;;;;;6.05;3.88;;;;;;;;;;4993214;28;20179;-66
2020/12/03 00:41:13;;;;;;;1.92;1.83;;;;;;;;;;4993089;28;20309;-65
2020/12/03 00:43:40;;;;;;;0.82;0.82;;;;;;;;;;4993321;28;20190;-65
2020/12/03 00:46:06;;;;;;;4.35;4.15;;;;;;;;;;4993393;28;20197;-65
2020/12/03 00:48:32;;;;;;;2.42;2.25;;;;;;;;;;4993249;28;20263;-65
2020/12/03 00:50:58;;;;;;;2.60;2.45;;;;;;;;;;4992708;28;20198;-66
2020/12/03 00:53:24;;;;;;;4.40;3.95;;;;;;;;;;4992951;28;20664;-65
2020/12/03 00:55:50;;;;;;;2.45;2.05;;;;;;;;;;4992902;28;20217;-66
2020/12/03 00:58:17;;;;;;;2.03;1.92;;;;;;;;;;4992892;28;20217;-66
2020/12/03 01:00:43;;;;;;;2.95;2.42;;;;;;;;;;4991619;28;20226;-66
2020/12/03 01:03:09;;;;;;;2.05;1.95;;;;;;;;;;4992761;28;20206;-65
2020/12/03 01:05:35;;;;;;;2.25;2.15;;;;;;;;;;4992754;28;20180;-66
2020/12/03 01:08:01;;;;;;;14.73;2.25;;;;;;;;;;4992797;28;20186;-66
2020/12/03 01:10:31;;;;;;;2.45;2.28;;;;;;;;;;4991123;28;20186;-64
2020/12/03 01:12:57;;;;;;;1.95;1.90;;;;;;;;;;4992662;28;20179;-66
2020/12/03 01:15:23;;;;;;;3.30;3.10;;;;;;;;;;4992660;28;20205;-65
2020/12/03 01:17:49;;;;;;;6.63;3.13;;;;;;;;;;4991460;28;20185;-66
2020/12/03 01:20:17;;;;;;;4.28;3.97;;;;;;;;;;4992259;28;20209;-64
2020/12/03 01:22:43;;;;;;;2.38;2.28;;;;;;;;;;4992518;28;20203;-66
2020/12/03 01:25:10;;;;;;;1.42;1.42;;;;;;;;;;4992513;28;20198;-66
2020/12/03 01:27:36;;;;;;;1.38;1.38;;;;;;;;;;4992568;28;20174;-66
2020/12/03 01:30:06;;;;;;;2.28;2.20;;;;;;;;;;4992196;28;20217;-65
2020/12/03 01:32:32;;;;;;;2.28;2.13;;;;;;;;;;4992564;28;20537;-65
2020/12/03 01:34:58;;;;;;;1.38;1.38;;;;;;;;;;4992355;28;20252;-65
2020/12/03 01:37:24;;;;;;;1.67;1.58;;;;;;;;;;4992486;28;20190;-65
2020/12/03 01:39:50;;;;;;;1.33;1.33;;;;;;;;;;4992250;28;20657;-65
2020/12/03 01:42:16;;;;;;;9.57;2.63;;;;;;;;;;4992930;23;20262;-63
2020/12/03 01:44:52;;;;;;;4.60;4.20;;;;;;;;;;4972439;28;20249;-64
2020/12/03 01:47:18;;;;;;;5.90;5.43;;;;;;;;;;4972827;28;20221;-63
2020/12/03 01:49:44;;;;;;;2.83;2.72;;;;;;;;;;4972538;28;20535;-64
2020/12/03 01:52:11;;;;;;;2.05;1.50;;;;;;;;;;4972658;28;20203;-64
2020/12/03 01:54:37;;;;;;;2.40;2.25;;;;;;;;;;4971508;28;20611;-63
2020/12/03 01:57:09;;;;;;;3.00;2.80;;;;;;;;;;4972735;28;20210;-63
2020/12/03 01:59:40;;;;;;;3.00;2.90;;;;;;;;;;4972376;28;20500;-63
2020/12/03 02:02:07;;;;;;;3.15;2.28;;;;;;;;;;4972218;28;20229;-63
2020/12/03 02:04:33;;;;;;;2.40;2.30;;;;;;;;;;4972620;28;20254;-64
2020/12/03 02:07:05;;;;;;;2.30;2.20;;;;;;;;;;4972658;28;20225;-64
2020/12/03 02:09:31;;;;;;;3.30;2.78;;;;;;;;;;4972343;28;20221;-64
2020/12/03 02:11:57;;;;;;;2.28;2.15;;;;;;;;;;4973679;28;20222;-63
2020/12/03 02:14:23;;;;;;;4.10;3.67;;;;;;;;;;4976402;28;20594;-63
2020/12/03 02:16:50;;;;;;;1.52;1.50;;;;;;;;;;4976419;28;20206;-63
2020/12/03 02:19:18;;;;;;;2.50;2.40;;;;;;;;;;4976079;28;20172;-63
2020/12/03 02:21:45;;;;;;;2.75;2.58;;;;;;;;;;4976262;28;20195;-63
2020/12/03 02:24:11;;;;;;;1.50;1.50;;;;;;;;;;4976152;28;20206;-63
2020/12/03 02:26:37;;;;;;;1.60;1.50;;;;;;;;;;4976426;28;20190;-63
2020/12/03 02:29:04;;;;;;;3.63;3.53;;;;;;;;;;4975881;28;20258;-63
2020/12/03 02:31:30;;;;;;;2.40;2.30;;;;;;;;;;4976038;28;20678;-63
2020/12/03 02:33:56;;;;;;;2.63;2.47;;;;;;;;;;4976144;28;20266;-63
2020/12/03 02:36:22;;;;;;;5.75;4.93;;;;;;;;;;4976013;28;20217;-63
2020/12/03 02:41:52;;;;;;;7.97;2.70;;;;;;;;;;4975644;28;20260;-66
2020/12/03 02:44:18;;;;;;;3.47;2.10;;;;;;;;;;4975799;28;20209;-65
2020/12/03 02:46:44;;;;;;;1.30;1.30;;;;;;;;;;4975897;28;20232;-66
2020/12/03 02:49:10;;;;;;;2.55;2.40;;;;;;;;;;4974584;28;20605;-65
2020/12/03 02:51:37;;;;;;;3.42;3.13;;;;;;;;;;4975756;28;20206;-65
2020/12/03 02:54:03;;;;;;;1.75;1.65;;;;;;;;;;4975806;28;20259;-65
2020/12/03 02:56:29;;;;;;;1.23;1.23;;;;;;;;;;4975673;28;20180;-64
2020/12/03 02:58:55;;;;;;;2.47;2.37;;;;;;;;;;4975438;28;20724;-63
2020/12/03 03:01:21;;;;;;;4.68;4.47;;;;;;;;;;4975504;28;20460;-63
2020/12/03 03:03:47;;;;;;;1.63;1.63;;;;;;;;;;4975495;28;20245;-65
2020/12/03 03:06:13;;;;;;;4.43;4.33;;;;;;;;;;4975451;28;20237;-63
2020/12/03 03:08:39;;;;;;;2.60;2.50;;;;;;;;;;4975385;28;20451;-62
2020/12/03 03:11:14;;;;;;;3.03;2.63;;;;;;;;;;4975125;28;20591;-65
2020/12/03 03:14:00;;;;;;;0.90;0.90;;;;;;;;;;4976064;28;20225;-65
2020/12/03 03:16:27;;;;;;;1.83;1.73;;;;;;;;;;4975344;28;20179;-65
2020/12/03 03:19:11;;;;;;;5.18;4.40;;;;;;;;;;4975083;28;20181;-65
2020/12/03 03:21:37;;;;;;;3.10;2.92;;;;;;;;;;4975091;28;20248;-66
2020/12/03 03:24:04;;;;;;;1.27;1.23;;;;;;;;;;4972640;28;20214;-65
2020/12/03 03:26:30;;;;;;;5.07;4.78;;;;;;;;;;4975152;28;20222;-65
2020/12/03 03:28:56;;;;;;;2.20;2.10;;;;;;;;;;4974927;28;20166;-65
2020/12/03 03:31:22;;;;;;;5.68;3.50;;;;;;;;;;4975032;28;20659;-64
2020/12/03 03:33:48;;;;;;;3.55;3.33;;;;;;;;;;4975089;28;20174;-62
2020/12/03 03:36:15;;;;;;;3.72;3.47;;;;;;;;;;4974846;28;20183;-65
2020/12/03 03:38:41;;;;;;;4.43;2.72;;;;;;;;;;4974856;28;20182;-65
2020/12/03 03:41:07;;;;;;;2.38;2.28;;;;;;;;;;4974598;28;20205;-65
2020/12/03 03:43:33;;;;;;;1.45;1.45;;;;;;;;;;4973799;28;20233;-65
2020/12/03 03:45:59;;;;;;;2.95;2.75;;;;;;;;;;4974899;28;20205;-62
2020/12/03 03:48:25;;;;;;;3.47;3.22;;;;;;;;;;4973666;28;20218;-62
2020/12/03 03:50:50;;;;;;;3.92;3.72;;;;;;;;;;4974000;28;20195;-63
2020/12/03 03:53:16;;;;;;;3.95;3.75;;;;;;;;;;4975333;28;20179;-63
2020/12/03 03:55:42;;;;;;;2.08;1.98;;;;;;;;;;4974404;28;20197;-62
2020/12/03 03:58:08;;;;;;;3.20;3.00;;;;;;;;;;4974452;28;20260;-63
2020/12/03 04:00:42;;;;;;;3.38;3.05;;;;;;;;;;4974117;28;20194;-62
2020/12/03 04:03:12;;;;;;;5.38;4.22;;;;;;;;;;4974467;28;20536;-64
2020/12/03 04:05:38;;;;;;;4.22;3.92;;;;;;;;;;4974133;28;20162;-63
2020/12/03 04:08:04;;;;;;;5.93;3.90;;;;;;;;;;4974285;28;20186;-63
2020/12/03 04:10:30;;;;;;;3.90;3.70;;;;;;;;;;4973848;28;20488;-63
2020/12/03 04:12:56;;;;;;;2.65;2.55;;;;;;;;;;4974104;28;20178;-65
2020/12/03 04:15:22;;;;;;;1.48;1.48;;;;;;;;;;4974058;28;20182;-65
2020/12/03 04:17:48;;;;;;;5.53;3.45;;;;;;;;;;4973943;28;20253;-65
2020/12/03 04:20:15;;;;;;;2.30;2.22;;;;;;;;;;4973672;28;20270;-65
2020/12/03 04:22:41;;;;;;;2.03;1.92;;;;;;;;;;4973794;28;20286;-63
2020/12/03 04:25:07;;;;;;;5.25;4.28;;;;;;;;;;4973811;28;20265;-64
2020/12/03 04:27:33;;;;;;;1.70;1.70;;;;;;;;;;4973861;28;20692;-65
2020/12/03 04:29:59;;;;;;;4.30;4.00;;;;;;;;;;4973718;28;20169;-63
2020/12/03 04:32:25;;;;;;;2.42;2.25;;;;;;;;;;4973633;28;20700;-63
2020/12/03 04:34:51;;;;;;;3.95;3.75;;;;;;;;;;4973685;28;20189;-63
2020/12/03 04:37:17;;;;;;;3.47;3.27;;;;;;;;;;4973803;28;20799;-63
2020/12/03 04:39:42;;;;;;;6.45;6.05;;;;;;;;;;4973451;28;20410;-63
2020/12/03 04:42:26;;;;;;;4.73;3.97;;;;;;;;;;4973480;28;20241;-62
2020/12/03 04:44:54;;;;;;;3.10;3.00;;;;;;;;;;4972297;28;20471;-63
2020/12/03 04:47:33;;;;;;;1.88;1.77;;;;;;;;;;4973629;28;20164;-63
2020/12/03 04:50:07;;;;;;;3.60;3.00;;;;;;;;;;4973650;28;20261;-63
2020/12/03 04:52:52;;;;;;;3.97;2.88;;;;;;;;;;4973566;28;20194;-63
2020/12/03 04:55:36;;;;;;;3.22;2.95;;;;;;;;;;4973403;28;20262;-63
2020/12/03 04:58:24;;;;;;;2.17;2.05;;;;;;;;;;4973505;28;20883;-63
2020/12/03 05:00:55;;;;;;;2.67;2.58;;;;;;;;;;4971929;28;20233;-63
2020/12/03 05:04:00;;;;;;;4.50;4.20;;;;;;;;;;4973343;28;20651;-63
2020/12/03 05:06:31;;;;;;;10.23;4.70;;;;;;;;;;4951637;29;20709;-63
2020/12/03 05:09:02;;;;;;;1.17;0.95;;;;;;;;;;4951709;29;20782;-63
2020/12/03 05:11:36;;;;;;;1.52;1.42;;;;;;;;;;4963314;28;20210;-63
2020/12/03 05:14:06;;;;;;;1.67;1.67;;;;;;;;;;4973287;28;20178;-63
2020/12/03 05:16:42;;;;;;;2.55;2.45;;;;;;;;;;4973177;28;20214;-63
2020/12/03 05:19:15;;;;;;;6.50;5.00;;;;;;;;;;4972959;28;20214;-63
2020/12/03 05:21:42;;;;;;;3.33;3.10;;;;;;;;;;4973084;28;20239;-63
2020/12/03 05:24:10;;;;;;;3.35;3.15;;;;;;;;;;4972943;28;20241;-63
2020/12/03 05:26:36;;;;;;;2.97;2.78;;;;;;;;;;4972984;28;20210;-63
2020/12/03 05:29:07;;;;;;;4.32;3.88;;;;;;;;;;4972777;28;20666;-62
2020/12/03 05:31:36;;;;;;;1.73;1.63;;;;;;;;;;4972906;28;20547;-63
2020/12/03 05:34:12;;;;;;;2.83;2.63;;;;;;;;;;4972985;28;20175;-63
2020/12/03 05:36:40;;;;;;;1.50;1.13;;;;;;;;;;4972934;28;20186;-63
2020/12/03 05:39:08;;;;;;;3.30;3.08;;;;;;;;;;4972532;28;20186;-63
2020/12/03 05:41:40;;;;;;;3.95;3.67;;;;;;;;;;4972588;28;20761;-63
2020/12/03 05:44:20;;;;;;;1.88;1.88;;;;;;;;;;4972714;28;20201;-63
2020/12/03 05:46:46;;;;;;;2.00;1.90;;;;;;;;;;4972102;28;20650;-63
2020/12/03 05:49:17;;;;;;;1.40;1.40;;;;;;;;;;4972569;28;20663;-64
2020/12/03 05:51:43;;;;;;;1.67;1.67;;;;;;;;;;4972022;28;20319;-64
2020/12/03 05:54:09;;;;;;;2.45;2.35;;;;;;;;;;4971927;28;20170;-64
2020/12/03 05:56:35;;;;;;;1.80;1.80;;;;;;;;;;4971962;28;20318;-64
2020/12/03 05:59:33;;;;;;;3.03;2.83;;;;;;;;;;4972075;28;20186;-64
2020/12/03 06:01:59;;;;;;;1.77;1.35;;;;;;;;;;4960643;28;20265;-64
2020/12/03 06:04:30;;;;;;;3.47;3.17;;;;;;;;;;4972548;28;20225;-63
2020/12/03 06:07:07;;;;;;;1.58;1.58;;;;;;;;;;4972692;28;20446;-64
2020/12/03 06:09:40;;;;;;;1.70;1.70;;;;;;;;;;4972400;28;20639;-63
2020/12/03 06:12:21;;;;;;;2.10;2.00;;;;;;;;;;4972595;28;20195;-64
2020/12/03 06:14:47;;;;;;;3.65;3.45;;;;;;;;;;4972523;28;20179;-64
2020/12/03 06:17:19;;;;;;;1.30;1.30;;;;;;;;;;4971286;28;20179;-64
2020/12/03 06:19:51;;;;;;;3.10;2.53;;;;;;;;;;4972299;28;20418;-63
2020/12/03 06:22:25;;;;;;;4.82;4.43;;;;;;;;;;4972403;28;20558;-64
2020/12/03 06:25:10;;;;;;;1.13;1.13;;;;;;;;;;4972420;28;20203;-64
2020/12/03 06:27:50;;;;;;;1.80;1.67;;;;;;;;;;4972418;28;20262;-64
2020/12/03 06:30:29;;;;;;;1.05;1.05;;;;;;;;;;4972277;28;20178;-64
2020/12/03 06:33:01;;;;;;;4.15;2.40;;;;;;;;;;4972442;28;20171;-64
2020/12/03 06:35:35;;;;;;;2.30;2.20;;;;;;;;;;4972427;28;20753;-64
2020/12/03 06:38:04;;;;;;;4.78;2.72;;;;;;;;;;4972318;28;20203;-64
2020/12/03 06:40:34;;;;;;;3.15;2.80;;;;;;;;;;4971986;28;20651;-63
2020/12/03 06:43:06;;;;;;;2.45;2.33;;;;;;;;;;4971390;28;20659;-64
2020/12/03 06:45:45;;;;;;;2.35;2.28;;;;;;;;;;4968186;28;20261;-63
2020/12/03 06:48:16;;;;;;;2.17;1.98;;;;;;;;;;4971918;28;20178;-63
2020/12/03 06:50:45;;;;;;;2.30;2.20;;;;;;;;;;4968733;28;20182;-63
2020/12/03 06:53:38;;;;;;;2.50;2.30;;;;;;;;;;4970737;28;20174;-64
2020/12/03 06:56:23;;;;;;;2.83;2.05;;;;;;;;;;4952659;29;20593;-65
2020/12/03 06:58:49;;;;;;;3.13;1.80;;;;;;;;;;4954677;28;20172;-65
2020/12/03 07:01:18;;;;;;;2.30;2.20;;;;;;;;;;4956240;28;20227;-64
2020/12/03 07:04:02;;;;;;;1.65;1.55;;;;;;;;;;4957832;28;20462;-64
2020/12/03 07:06:56;;;;;;;3.60;2.72;;;;;;;;;;4963202;28;20227;-64
2020/12/03 07:09:30;;;;;;;1.60;1.58;;;;;;;;;;4957925;28;20183;-64
2020/12/03 07:12:03;;;;;;;1.70;1.65;;;;;;;;;;4964034;28;20250;-64
2020/12/03 07:14:47;;;;;;;3.05;2.95;;;;;;;;;;4966352;28;20175;-64
2020/12/03 07:17:32;;;;;;;3.80;2.42;;;;;;;;;;4981082;28;20189;-63
2020/12/03 07:20:04;;;;;;;1.73;1.63;;;;;;;;;;4983808;28;20270;-63
2020/12/03 07:22:45;;;;;;;1.58;1.48;;;;;;;;;;4965512;28;20207;-63
2020/12/03 07:25:12;;;;;;;3.20;2.20;;;;;;;;;;4959955;28;20540;-63
2020/12/03 07:27:49;;;;;;;2.92;2.75;;;;;;;;;;4974728;28;20219;-63
2020/12/03 07:30:41;;;;;;;2.08;1.98;;;;;;;;;;4965500;28;20176;-63
2020/12/03 07:33:26;;;;;;;2.83;2.63;;;;;;;;;;4965937;28;20187;-63
2020/12/03 07:36:12;;;;;;;1.25;1.25;;;;;;;;;;4956499;28;20196;-63
2020/12/03 07:38:41;;;;;;;2.13;2.03;;;;;;;;;;4961770;28;20242;-63
2020/12/03 07:41:07;;;;;;;1.58;1.58;;;;;;;;;;4998101;23;20215;-61
2020/12/03 07:43:35;;;;;;;5.00;1.42;;;;;;;;;;4963842;28;20223;-64
2020/12/03 07:46:01;;;;;;;3.08;2.88;;;;;;;;;;4972660;28;20634;-63
2020/12/03 07:48:31;;;;;;;1.25;1.25;;;;;;;;;;4973402;28;20197;-64
2020/12/03 07:51:03;;;;;;;2.17;2.08;;;;;;;;;;4973992;28;20209;-64
2020/12/03 07:53:32;;;;;;;1.65;1.65;;;;;;;;;;4954269;28;20182;-64
2020/12/03 07:55:58;;;;;;;1.50;1.45;;;;;;;;;;4968442;28;20729;-63
2020/12/03 07:58:29;;;;;;;1.83;1.83;;;;;;;;;;4955326;28;20259;-65
2020/12/03 08:00:56;;;;;;;1.73;1.73;;;;;;;;;;4954687;28;20548;-66
2020/12/03 08:03:35;;;;;;;3.10;2.90;;;;;;;;;;4954521;28;20192;-66
2020/12/03 08:06:25;;;;;;;1.65;1.55;;;;;;;;;;4954228;28;20517;-66
2020/12/03 08:09:00;;;;;;;0.80;0.80;;;;;;;;;;4950807;28;20188;-64
2020/12/03 08:11:38;;;;;;;0.73;0.73;;;;;;;;;;4954453;28;20207;-65
2020/12/03 08:14:05;;;;;;;3.75;2.42;;;;;;;;;;4954775;28;20266;-64
2020/12/03 08:16:33;;;;;;;0.98;0.98;;;;;;;;;;4954376;28;20183;-65
2020/12/03 08:19:09;;;;;;;0.80;0.80;;;;;;;;;;4954180;28;20571;-66
2020/12/03 08:21:39;;;;;;;1.55;1.55;;;;;;;;;;4954313;28;20203;-65
2020/12/03 08:24:08;;;;;;;0.80;0.80;;;;;;;;;;4954388;28;20762;-65
2020/12/03 08:26:34;;;;;;;0.68;0.68;;;;;;;;;;4954639;28;20559;-63
2020/12/03 08:29:00;;;;;;;1.45;1.40;;;;;;;;;;4953834;28;20540;-66
2020/12/03 08:31:26;;;;;;;1.05;1.05;;;;;;;;;;4954377;28;20231;-66
2020/12/03 08:33:53;;;;;;;1.03;1.00;;;;;;;;;;4954122;28;20183;-66
2020/12/03 08:36:19;;;;;;;2.30;2.20;;;;;;;;;;4954576;28;20411;-65
2020/12/03 08:38:52;;;;;;;1.30;1.30;;;;;;;;;;4954004;28;20180;-64
2020/12/03 08:41:19;;;;;;;1.95;1.85;;;;;;;;;;4954035;28;20202;-66
2020/12/03 08:43:52;;;;;;;3.42;1.40;;;;;;;;;;4954322;28;20198;-65
2020/12/03 08:46:23;;;;;;;0.60;0.60;;;;;;;;;;4954260;28;20689;-66
2020/12/03 08:48:49;;;;;;;1.30;1.30;;;;;;;;;;4969009;28;20186;-65
2020/12/03 08:51:17;;;;;;;1.70;1.60;;;;;;;;;;4953703;28;20222;-65
2020/12/03 08:53:48;;;;;;;3.00;2.38;;;;;;;;;;4954085;28;20187;-65
2020/12/03 08:56:17;;;;;;;1.35;1.35;;;;;;;;;;4954008;28;20188;-65
2020/12/03 08:59:02;;;;;;;1.00;1.00;;;;;;;;;;4953619;28;20176;-59
2020/12/03 09:01:32;;;;;;;1.42;1.42;;;;;;;;;;4953579;28;20254;-65
2020/12/03 09:03:59;;;;;;;1.45;1.45;;;;;;;;;;4953778;28;20199;-65
2020/12/03 09:06:30;;;;;;;1.80;1.70;;;;;;;;;;4953962;28;20171;-65
2020/12/03 09:08:56;;;;;;;1.20;1.20;;;;;;;;;;4953423;28;20173;-65
2020/12/03 09:11:23;;;;;;;2.40;2.05;;;;;;;;;;4953570;28;20564;-65
2020/12/03 09:13:53;;;;;;;6.70;3.08;;;;;;;;;;4953567;28;20668;-65
2020/12/03 09:16:21;;;;;;;1.00;1.00;;;;;;;;;;4953879;28;20247;-64
2020/12/03 09:18:47;;;;;;;1.35;1.35;;;;;;;;;;4953510;28;20211;-65
2020/12/03 09:21:14;;;;;;;2.17;2.07;;;;;;;;;;4952394;28;20636;-65
2020/12/03 09:23:46;;;;;;;1.30;1.30;;;;;;;;;;4953361;28;20482;-65
2020/12/03 09:26:16;;;;;;;0.90;0.90;;;;;;;;;;4953632;28;20304;-66
2020/12/03 09:28:45;;;;;;;3.47;2.65;;;;;;;;;;4953492;28;20167;-65
2020/12/03 09:31:11;;;;;;;1.10;1.10;;;;;;;;;;4953420;28;20176;-65
2020/12/03 09:33:38;;;;;;;1.25;1.25;;;;;;;;;;4953003;28;20246;-66
2020/12/03 09:36:04;;;;;;;2.85;2.75;;;;;;;;;;4953135;28;20686;-66
2020/12/03 09:38:31;;;;;;;2.05;1.60;;;;;;;;;;4953438;28;20207;-69
2020/12/03 09:40:57;;;;;;;1.67;1.58;;;;;;;;;;4953160;28;20180;-65
2020/12/03 09:43:24;;;;;;;2.72;2.63;;;;;;;;;;4953388;28;20208;-65
2020/12/03 09:45:53;;;;;;;1.45;1.45;;;;;;;;;;4953137;28;20172;-66
2020/12/03 09:48:20;;;;;;;2.50;1.95;;;;;;;;;;4953138;28;20179;-65
2020/12/03 09:50:48;;;;;;;2.03;1.92;;;;;;;;;;4968607;28;20607;-66
2020/12/03 09:53:16;;;;;;;1.60;1.60;;;;;;;;;;4953436;28;20196;-64
2020/12/03 09:55:42;;;;;;;2.35;2.25;;;;;;;;;;4953301;28;20218;-63
2020/12/03 09:58:08;;;;;;;1.40;1.35;;;;;;;;;;4952558;28;20177;-62
2020/12/03 10:00:39;;;;;;;2.55;2.35;;;;;;;;;;4952984;28;20202;-63
2020/12/03 10:03:04;;;;;;;2.63;2.42;;;;;;;;;;4953355;28;20192;-63
2020/12/03 10:05:49;;;;;;;1.97;1.83;;;;;;;;;;4953508;28;20204;-63
2020/12/03 10:08:34;;;;;;;2.17;2.00;;;;;;;;;;4967869;28;20791;-64
2020/12/03 10:11:19;;;;;;;1.60;1.52;;;;;;;;;;4952569;28;20194;-65
2020/12/03 10:14:00;;;;;;;2.03;1.73;;;;;;;;;;4968027;28;20211;-64
2020/12/03 10:16:28;;;;;;;0.93;0.93;;;;;;;;;;4953393;28;20179;-63
2020/12/03 10:18:58;;;;;;;1.83;1.75;;;;;;;;;;4953143;28;20173;-63
2020/12/03 10:21:28;;;;;;;1.90;1.80;;;;;;;;;;4952562;28;20200;-64
2020/12/03 10:24:00;;;;;;;2.22;2.13;;;;;;;;;;4952895;28;20222;-65
2020/12/03 10:26:34;;;;;;;2.75;2.55;;;;;;;;;;4953272;28;20588;-65
2020/12/03 10:29:19;;;;;;;0.95;0.93;;;;;;;;;;4952650;28;20184;-62
2020/12/03 10:31:45;;;;;;;2.88;2.78;;;;;;;;;;4952219;28;20204;-65
2020/12/03 10:34:13;;;;;;;1.75;1.75;;;;;;;;;;4955988;28;20217;-63
2020/12/03 10:36:49;;;;;;;1.70;1.70;;;;;;;;;;4956495;28;20263;-63
2020/12/03 10:39:16;;;;;;;2.40;2.30;;;;;;;;;;4956052;28;20203;-64
2020/12/03 10:41:45;;;;;;;1.80;1.70;;;;;;;;;;4956659;28;20215;-64
2020/12/03 10:44:16;;;;;;;3.03;1.88;;;;;;;;;;4956320;28;20204;-62
2020/12/03 10:46:45;;;;;;;1.13;1.13;;;;;;;;;;4956488;28;20164;-63
2020/12/03 10:49:15;;;;;;;3.28;2.70;;;;;;;;;;4955040;29;20192;-63
2020/12/03 10:51:42;;;;;;;1.27;1.27;;;;;;;;;;4956568;28;20188;-63
2020/12/03 10:54:08;;;;;;;1.58;1.50;;;;;;;;;;4956352;28;20176;-62
2020/12/03 10:56:37;;;;;;;5.90;3.10;;;;;;;;;;4956493;29;20207;-64
2020/12/03 10:59:07;;;;;;;1.27;1.27;;;;;;;;;;4955623;28;20231;-64
2020/12/03 11:01:34;;;;;;;2.35;2.25;;;;;;;;;;4956168;28;20258;-64
2020/12/03 11:04:05;;;;;;;1.83;1.73;;;;;;;;;;4955571;28;20726;-65
2020/12/03 11:06:32;;;;;;;1.13;1.13;;;;;;;;;;4955658;28;20255;-65
2020/12/03 11:08:59;;;;;;;3.38;2.90;;;;;;;;;;4955572;28;20188;-63
2020/12/03 11:11:32;;;;;;;1.38;1.35;;;;;;;;;;4954134;28;20703;-64
2020/12/03 11:13:58;;;;;;;2.00;1.90;;;;;;;;;;4955759;28;20183;-64
2020/12/03 11:16:28;;;;;;;2.03;1.88;;;;;;;;;;4955135;28;20581;-64
2020/12/03 11:18:55;;;;;;;2.00;1.85;;;;;;;;;;4955499;28;20897;-62
2020/12/03 11:21:25;;;;;;;1.50;1.50;;;;;;;;;;4954329;28;20239;-63
2020/12/03 11:24:05;;;;;;;2.20;2.08;;;;;;;;;;4955049;28;20283;-65
2020/12/03 11:26:33;;;;;;;4.88;2.22;;;;;;;;;;4955363;28;20529;-65
2020/12/03 11:29:13;;;;;;;4.32;2.40;;;;;;;;;;4954926;28;20176;-63
2020/12/03 11:31:39;;;;;;;2.28;1.85;;;;;;;;;;4955268;28;20203;-64
2020/12/03 11:34:06;;;;;;;2.15;1.67;;;;;;;;;;4954134;29;20193;-63
2020/12/03 11:36:34;;;;;;;2.30;2.15;;;;;;;;;;4955045;28;20284;-64
2020/12/03 11:39:02;;;;;;;0.90;0.90;;;;;;;;;;4953234;29;20188;-63
2020/12/03 11:44:20;;;;;;;2.58;2.38;;;;;;;;;;4954364;28;20199;-65
2020/12/03 11:49:32;;;;;;;1.02;1.02;;;;;;;;;;4954066;29;20251;-64
2020/12/03 11:52:14;;;;;;;2.15;1.65;;;;;;;;;;4955024;28;20305;-64
2020/12/03 11:54:40;;;;;;;1.77;1.70;;;;;;;;;;4955122;28;20694;-63
2020/12/03 11:57:07;;;;;;;2.25;2.05;;;;;;;;;;4953947;29;20182;-64
2020/12/03 11:59:34;;;;;;;1.38;1.38;;;;;;;;;;4954636;28;20175;-64
2020/12/03 12:02:02;;;;;;;1.27;1.20;;;;;;;;;;4954227;28;20192;-64
2020/12/03 12:12:08;;;;;;;0.80;0.80;;;;;;;;;;4954434;28;20683;-64
2020/12/03 12:14:34;;;;;;;2.08;1.98;;;;;;;;;;4954493;28;20945;-63
2020/12/03 12:17:00;;;;;;;2.10;2.00;;;;;;;;;;4954605;28;20184;-62
2020/12/03 12:19:27;;;;;;;2.05;1.95;;;;;;;;;;4954325;28;20180;-64
2020/12/03 12:21:54;;;;;;;1.40;1.40;;;;;;;;;;4954211;28;20198;-65
2020/12/03 12:24:20;;;;;;;1.48;1.48;;;;;;;;;;4953891;28;20195;-64
2020/12/03 12:26:46;;;;;;;1.42;1.33;;;;;;;;;;4954331;28;20165;-64
2020/12/03 12:29:12;;;;;;;1.08;1.08;;;;;;;;;;4954072;28;20172;-64
2020/12/03 12:31:38;;;;;;;2.53;2.22;;;;;;;;;;4954461;28;20188;-65
2020/12/03 12:34:04;;;;;;;0.70;0.70;;;;;;;;;;4953769;28;20196;-65
2020/12/03 12:36:30;;;;;;;1.40;1.40;;;;;;;;;;4954385;28;20412;-64
2020/12/03 12:38:56;;;;;;;1.05;1.05;;;;;;;;;;4953886;28;20503;-64
2020/12/03 12:41:22;;;;;;;2.10;1.90;;;;;;;;;;4953906;28;20587;-65
2020/12/03 12:43:48;;;;;;;1.17;1.17;;;;;;;;;;4953929;28;20201;-64
2020/12/03 12:46:24;;;;;;;1.63;1.58;;;;;;;;;;4953571;28;20407;-64
2020/12/03 12:48:51;;;;;;;1.65;1.55;;;;;;;;;;4953495;28;20298;-64
2020/12/03 12:51:17;;;;;;;1.20;1.20;;;;;;;;;;4953858;28;20190;-65
2020/12/03 12:53:43;;;;;;;1.58;1.48;;;;;;;;;;4953981;28;20206;-64
2020/12/03 12:56:13;;;;;;;1.02;1.02;;;;;;;;;;4953344;28;20726;-64
2020/12/03 12:58:39;;;;;;;1.80;1.70;;;;;;;;;;4953985;28;20219;-65
2020/12/03 13:01:06;;;;;;;0.93;0.93;;;;;;;;;;4953386;28;20217;-65
2020/12/03 13:03:32;;;;;;;1.02;1.02;;;;;;;;;;4953675;28;20731;-65
2020/12/03 13:05:59;;;;;;;1.92;1.58;;;;;;;;;;4953450;28;20214;-65
2020/12/03 13:08:27;;;;;;;1.90;1.75;;;;;;;;;;4953039;28;20662;-65
2020/12/03 13:10:53;;;;;;;2.15;2.05;;;;;;;;;;4953602;28;20180;-65
2020/12/03 13:13:25;;;;;;;2.38;2.28;;;;;;;;;;4953313;28;20227;-64
2020/12/03 13:15:51;;;;;;;1.02;1.02;;;;;;;;;;4953636;28;20172;-65
2020/12/03 13:18:17;;;;;;;0.87;0.87;;;;;;;;;;4953021;28;20191;-64
2020/12/03 13:20:46;;;;;;;1.80;1.70;;;;;;;;;;4953345;28;20419;-65
2020/12/03 13:23:12;;;;;;;2.17;2.08;;;;;;;;;;4953579;28;20436;-64
2020/12/03 13:25:39;;;;;;;1.67;1.67;;;;;;;;;;4953246;29;20242;-64
2020/12/03 13:28:05;;;;;;;1.50;1.40;;;;;;;;;;4953318;28;20176;-65
2020/12/03 13:30:31;;;;;;;3.22;2.47;;;;;;;;;;4952507;28;20172;-66
2020/12/03 13:32:56;;;;;;;1.50;1.43;;;;;;;;;;4953345;28;20195;-66
2020/12/03 13:35:22;;;;;;;1.03;1.03;;;;;;;;;;4953139;28;20416;-64
2020/12/03 13:37:48;;;;;;;1.37;1.27;;;;;;;;;;4952959;28;20415;-66
2020/12/03 13:40:14;;;;;;;1.20;1.20;;;;;;;;;;4951324;29;20464;-65
2020/12/03 13:42:40;;;;;;;1.03;0.93;;;;;;;;;;4977420;23;20238;-64
2020/12/03 13:45:06;;;;;;;0.98;0.98;;;;;;;;;;4991251;28;20453;-64
2020/12/03 13:47:32;;;;;;;0.80;0.80;;;;;;;;;;4991127;28;20174;-64
2020/12/03 13:49:58;;;;;;;1.90;1.67;;;;;;;;;;4991074;28;20186;-64
2020/12/03 13:52:24;;;;;;;1.23;1.23;;;;;;;;;;4989968;28;20445;-64
2020/12/03 13:54:50;;;;;;;0.80;0.80;;;;;;;;;;4991974;28;20174;-65
2020/12/03 13:57:16;;;;;;;2.53;1.70;;;;;;;;;;4991679;28;20210;-64
2020/12/03 13:59:42;;;;;;;2.63;1.75;;;;;;;;;;4991736;28;20413;-64
2020/12/03 14:02:14;;;;;;;2.10;2.00;;;;;;;;;;4989672;28;20538;-64
2020/12/03 14:04:40;;;;;;;1.75;1.65;;;;;;;;;;4991130;28;20472;-64
2020/12/03 14:07:06;;;;;;;0.82;0.82;;;;;;;;;;4991493;28;20238;-64
2020/12/03 14:09:32;;;;;;;0.70;0.70;;;;;;;;;;4993994;28;20202;-64
2020/12/03 14:11:58;;;;;;;1.33;1.23;;;;;;;;;;4995446;28;20596;-64
2020/12/03 14:14:24;;;;;;;0.60;0.60;;;;;;;;;;4994886;28;20177;-64
2020/12/03 14:16:50;;;;;;;3.22;2.30;;;;;;;;;;4995239;28;20186;-64
2020/12/03 14:19:16;;;;;;;1.33;1.23;;;;;;;;;;4995092;28;20190;-64
2020/12/03 14:21:42;;;;;;;2.10;1.92;;;;;;;;;;4995219;28;20178;-64
2020/12/03 14:24:08;;;;;;;1.65;1.65;;;;;;;;;;4995178;28;20233;-64
2020/12/03 14:26:34;;;;;;;1.73;1.63;;;;;;;;;;4994492;28;20183;-64
2020/12/03 14:29:00;;;;;;;1.90;1.43;;;;;;;;;;4994946;28;20181;-64
2020/12/03 14:31:27;;;;;;;7.00;4.95;;;;;;;;;;4995055;28;20776;-64
2020/12/03 14:33:53;;;;;;;0.88;0.88;;;;;;;;;;4994949;28;20194;-64
2020/12/03 14:36:19;;;;;;;1.67;1.58;;;;;;;;;;4994452;28;20209;-64
2020/12/03 14:38:45;;;;;;;0.60;0.60;;;;;;;;;;4994499;28;20225;-64
2020/12/03 14:41:11;;;;;;;3.15;2.80;;;;;;;;;;4994709;28;20174;-64
2020/12/03 14:43:37;;;;;;;0.90;0.90;;;;;;;;;;4994650;28;20240;-64
2020/12/03 14:46:03;;;;;;;1.35;1.35;;;;;;;;;;4995230;28;20174;-64
2020/12/03 14:48:29;;;;;;;0.90;0.88;;;;;;;;;;4994506;28;20531;-64
2020/12/03 14:50:55;;;;;;;2.70;2.58;;;;;;;;;;4994509;28;20209;-63
2020/12/03 14:53:22;;;;;;;1.23;1.23;;;;;;;;;;4995124;28;20187;-63
2020/12/03 14:55:50;;;;;;;1.90;1.80;;;;;;;;;;4994949;28;20602;-64
2020/12/03 14:58:22;;;;;;;3.00;2.38;;;;;;;;;;4994583;28;20562;-64
2020/12/03 15:00:48;;;;;;;1.70;1.60;;;;;;;;;;4994300;28;20202;-64
2020/12/03 15:03:14;;;;;;;2.67;2.53;;;;;;;;;;4994381;28;20242;-64
2020/12/03 15:05:40;;;;;;;5.22;3.40;;;;;;;;;;4994617;28;20207;-64
2020/12/03 15:08:08;;;;;;;4.63;1.77;;;;;;;;;;4994655;28;20528;-64
2020/12/03 15:10:46;;;;;;;3.45;2.05;;;;;;;;;;4993576;28;20186;-64
2020/12/03 15:13:12;;;;;;;0.93;0.93;;;;;;;;;;4994290;28;20543;-64